createdAt,value
2023-03-12T00:01:59.542Z,6.37
2023-03-12T00:05:02.372Z,4.90
2023-03-12T00:08:06.055Z,4.73
2023-03-12T00:11:12.619Z,5.43
2023-03-12T00:14:16.096Z,4.53
2023-03-12T00:17:19.016Z,4.37
2023-03-12T00:20:23.352Z,4.63
2023-03-12T00:23:26.349Z,4.90
2023-03-12T00:26:30.669Z,5.93
2023-03-12T00:29:33.593Z,6.83
2023-03-12T00:32:37.158Z,5.47
2023-03-12T00:35:40.501Z,6.17
2023-03-12T00:38:44.190Z,7.47
2023-03-12T00:41:48.380Z,8.70
2023-03-12T00:44:51.413Z,13.53
2023-03-12T00:47:54.472Z,7.50
2023-03-12T00:50:57.325Z,8.13
2023-03-12T00:54:00.169Z,7.40
2023-03-12T00:57:04.537Z,6.97
2023-03-12T01:00:10.185Z,7.43
2023-03-12T01:03:13.201Z,5.07
2023-03-12T01:06:16.420Z,5.53
2023-03-12T01:09:20.602Z,7.03
2023-03-12T01:12:24.780Z,7.00
2023-03-12T01:15:27.905Z,10.47
2023-03-12T01:18:30.742Z,6.87
2023-03-12T01:21:33.840Z,11.90
2023-03-12T01:24:36.830Z,11.77
2023-03-12T01:27:41.086Z,5.90
2023-03-12T01:30:43.988Z,6.83
2023-03-12T01:33:50.334Z,6.13
2023-03-12T01:36:53.151Z,6.97
2023-03-12T01:39:56.259Z,6.73
2023-03-12T01:43:00.609Z,9.13
2023-03-12T01:46:20.637Z,6.03
2023-03-12T01:49:28.065Z,7.90
2023-03-12T01:52:36.217Z,7.30
2023-03-12T01:55:39.516Z,6.20
2023-03-12T01:58:46.308Z,7.17
2023-03-12T02:01:49.747Z,7.30
2023-03-12T02:04:58.334Z,12.93
2023-03-12T02:08:01.617Z,7.60
2023-03-12T02:11:04.723Z,7.23
2023-03-12T02:14:08.943Z,9.17
2023-03-12T02:17:12.627Z,8.67
2023-03-12T02:20:21.789Z,9.07
2023-03-12T02:23:32.080Z,8.40
2023-03-12T02:26:38.651Z,10.50
2023-03-12T02:29:44.400Z,8.30
2023-03-12T02:32:49.562Z,8.73
2023-03-12T02:35:53.357Z,7.27
2023-03-12T02:38:57.094Z,7.47
2023-03-12T02:42:02.058Z,6.37
2023-03-12T02:45:05.807Z,7.23
2023-03-12T02:48:10.575Z,7.63
2023-03-12T02:51:13.440Z,7.37
2023-03-12T02:54:18.281Z,8.03
2023-03-12T02:57:22.450Z,6.03
2023-03-12T03:00:25.388Z,7.27
2023-03-12T03:03:28.280Z,7.60
2023-03-12T03:06:32.504Z,7.50
2023-03-12T03:09:35.350Z,6.87
2023-03-12T03:12:39.505Z,6.60
2023-03-12T03:15:42.450Z,6.87
2023-03-12T03:18:45.299Z,7.10
2023-03-12T03:21:48.151Z,10.47
2023-03-12T03:24:51.279Z,6.17
2023-03-12T03:27:55.465Z,6.00
2023-03-12T03:31:01.478Z,5.13
2023-03-12T03:34:04.625Z,5.87
2023-03-12T03:37:07.614Z,5.30
2023-03-12T03:40:12.377Z,4.60
2023-03-12T03:43:16.676Z,4.43
2023-03-12T03:46:19.589Z,5.17
2023-03-12T03:49:22.776Z,4.50
2023-03-12T03:52:25.834Z,5.67
2023-03-12T03:55:28.661Z,3.80
2023-03-12T03:58:32.885Z,4.37
2023-03-12T04:01:36.847Z,3.80
2023-03-12T04:04:39.658Z,6.00
2023-03-12T04:07:42.484Z,4.27
2023-03-12T04:10:45.289Z,4.30
2023-03-12T04:13:49.831Z,4.70
2023-03-12T04:16:52.650Z,4.77
2023-03-12T04:19:55.489Z,3.67
2023-03-12T04:23:01.150Z,4.40
2023-03-12T04:26:04.226Z,3.60
2023-03-12T04:29:08.542Z,4.23
2023-03-12T04:32:11.482Z,4.23
2023-03-12T04:35:14.412Z,4.50
2023-03-12T04:38:17.249Z,4.97
2023-03-12T04:41:20.200Z,4.13
2023-03-12T04:44:24.454Z,4.67
2023-03-12T04:47:27.406Z,5.00
2023-03-12T04:50:30.278Z,5.17
2023-03-12T04:53:33.768Z,4.57
2023-03-12T04:56:36.633Z,3.80
2023-03-12T04:59:41.135Z,4.60
2023-03-12T05:02:44.037Z,4.70
2023-03-12T05:05:47.105Z,4.23
2023-03-12T05:08:50.179Z,4.83
2023-03-12T05:11:53.023Z,5.00
2023-03-12T05:14:57.387Z,4.10
2023-03-12T05:18:00.340Z,4.20
2023-03-12T05:21:05.442Z,4.53
2023-03-12T05:24:08.883Z,4.47
2023-03-12T05:27:11.709Z,5.17
2023-03-12T05:30:16.263Z,4.27
2023-03-12T05:33:19.142Z,4.67
2023-03-12T05:36:22.079Z,4.73
2023-03-12T05:39:25.470Z,4.00
2023-03-12T05:42:28.350Z,4.07
2023-03-12T05:45:33.849Z,4.90
2023-03-12T05:48:36.757Z,4.97
2023-03-12T05:51:39.811Z,4.50
2023-03-12T05:54:42.743Z,5.27
2023-03-12T05:57:46.218Z,5.07
2023-03-12T06:00:50.392Z,5.03
2023-03-12T06:03:53.233Z,6.07
2023-03-12T06:06:56.163Z,6.47
2023-03-12T06:09:59.847Z,6.13
2023-03-12T06:13:02.746Z,5.83
2023-03-12T06:16:10.241Z,5.97
2023-03-12T06:19:14.728Z,6.43
2023-03-12T06:22:17.533Z,6.87
2023-03-12T06:25:20.626Z,5.90
2023-03-12T06:28:23.443Z,6.07
2023-03-12T06:31:27.751Z,5.53
2023-03-12T06:34:30.648Z,5.10
2023-03-12T06:37:33.472Z,5.30
2023-03-12T06:40:36.321Z,5.23
2023-03-12T06:43:40.520Z,6.23
2023-03-12T06:46:45.253Z,15.20
2023-03-12T06:49:48.174Z,6.33
2023-03-12T06:52:50.996Z,5.60
2023-03-12T06:55:54.242Z,5.33
2023-03-12T06:58:57.378Z,5.47
2023-03-12T07:02:01.849Z,3.53
2023-03-12T07:05:05.136Z,4.93
2023-03-12T07:08:08.182Z,5.07
2023-03-12T07:11:11.769Z,4.87
2023-03-12T07:14:14.585Z,6.80
2023-03-12T07:17:18.795Z,3.90
2023-03-12T07:20:21.790Z,3.30
2023-03-12T07:23:24.976Z,4.50
2023-03-12T07:26:28.125Z,4.07
2023-03-12T07:29:30.974Z,3.07
2023-03-12T07:32:36.692Z,3.53
2023-03-12T07:35:40.764Z,2.83
2023-03-12T07:38:43.680Z,3.07
2023-03-12T07:41:46.814Z,3.03
2023-03-12T07:44:49.662Z,3.43
2023-03-12T07:47:54.078Z,2.43
2023-03-12T07:50:57.001Z,2.87
2023-03-12T07:53:59.796Z,2.77
2023-03-12T07:57:02.873Z,2.57
2023-03-12T08:00:08.896Z,2.83
2023-03-12T08:03:14.581Z,2.90
2023-03-12T08:06:17.830Z,2.40
2023-03-12T08:09:20.700Z,2.50
2023-03-12T08:12:23.772Z,3.43
2023-03-12T08:15:26.682Z,2.10
2023-03-12T08:18:30.936Z,2.63
2023-03-12T08:21:34.151Z,3.63
2023-03-12T08:24:37.003Z,2.57
2023-03-12T08:27:39.843Z,2.43
2023-03-12T08:30:47.462Z,1.73
2023-03-12T08:33:51.623Z,2.37
2023-03-12T08:36:54.532Z,2.47
2023-03-12T08:39:57.596Z,2.17
2023-03-12T08:43:00.617Z,2.30
2023-03-12T08:46:04.717Z,2.50
2023-03-12T08:49:09.294Z,3.47
2023-03-12T08:52:12.180Z,2.67
2023-03-12T08:55:15.227Z,2.63
2023-03-12T08:58:18.318Z,2.27
2023-03-12T09:01:21.193Z,1.60
2023-03-12T09:04:25.522Z,1.70
2023-03-12T09:07:28.357Z,1.87
2023-03-12T09:10:31.388Z,1.93
2023-03-12T09:13:57.853Z,1.70
2023-03-12T09:16:58.137Z,1.20
2023-03-12T09:20:02.665Z,1.67
2023-03-12T09:23:07.656Z,2.00
2023-03-12T09:26:11.435Z,2.07
2023-03-12T09:29:14.389Z,1.70
2023-03-12T09:32:17.303Z,1.37
2023-03-12T09:35:21.654Z,1.90
2023-03-12T09:38:24.793Z,1.40
2023-03-12T09:41:30.871Z,1.50
2023-03-12T09:44:39.294Z,1.47
2023-03-12T09:47:48.469Z,1.60
2023-03-12T09:50:54.333Z,1.60
2023-03-12T09:54:00.226Z,1.57
2023-03-12T09:57:10.485Z,0.97
2023-03-12T10:00:16.428Z,2.47
2023-03-12T10:03:39.413Z,1.33
2023-03-12T10:06:50.100Z,1.43
2023-03-12T10:10:16.968Z,1.20
2023-03-12T10:13:33.553Z,1.40
2023-03-12T10:17:00.224Z,1.00
2023-03-12T10:20:37.700Z,1.60
2023-03-12T10:23:54.519Z,3.17
2023-03-12T10:26:59.455Z,1.50
2023-03-12T10:30:03.317Z,1.37
2023-03-12T10:33:13.424Z,1.43
2023-03-12T10:36:19.675Z,1.30
2023-03-12T10:39:23.844Z,1.90
2023-03-12T10:42:29.351Z,1.50
2023-03-12T10:45:37.483Z,1.13
2023-03-12T10:48:40.323Z,0.93
2023-03-12T10:51:56.829Z,1.70
2023-03-12T10:55:13.443Z,1.80
2023-03-12T10:58:24.382Z,1.13
2023-03-12T11:01:30.507Z,1.50
2023-03-12T11:04:34.258Z,1.80
2023-03-12T11:07:37.123Z,1.60
2023-03-12T11:10:44.408Z,1.47
2023-03-12T11:13:47.244Z,1.40
2023-03-12T11:16:50.695Z,1.43
2023-03-12T11:19:53.621Z,1.60
2023-03-12T11:22:56.885Z,1.40
2023-03-12T11:26:04.263Z,2.77
2023-03-12T11:29:15.025Z,1.10
2023-03-12T11:32:21.050Z,1.40
2023-03-12T11:35:35.143Z,1.40
2023-03-12T11:38:42.457Z,2.17
2023-03-12T11:42:06.774Z,1.57
2023-03-12T11:45:19.979Z,1.53
2023-03-12T11:48:29.834Z,1.20
2023-03-12T11:51:44.407Z,1.40
2023-03-12T11:55:08.712Z,1.57
2023-03-12T11:58:48.154Z,1.90
2023-03-12T12:02:02.475Z,1.67
2023-03-12T12:05:32.167Z,1.27
2023-03-12T12:08:52.418Z,2.23
2023-03-12T12:12:10.576Z,1.50
2023-03-12T12:15:24.932Z,2.40
2023-03-12T12:18:48.912Z,1.83
2023-03-12T12:22:05.977Z,1.53
2023-03-12T12:25:25.395Z,2.67
2023-03-12T12:28:50.377Z,2.47
2023-03-12T12:31:57.064Z,6.10
2023-03-12T12:35:12.378Z,4.13
2023-03-12T12:38:29.750Z,2.80
2023-03-12T12:41:37.159Z,2.57
2023-03-12T12:44:45.230Z,2.77
2023-03-12T12:47:52.457Z,2.13
2023-03-12T12:50:59.693Z,2.67
2023-03-12T12:54:10.714Z,2.03
2023-03-12T12:57:19.409Z,2.43
2023-03-12T13:00:37.451Z,3.47
2023-03-12T13:03:41.409Z,2.37
2023-03-12T13:07:02.031Z,3.97
2023-03-12T13:10:09.009Z,3.30
2023-03-12T13:13:19.028Z,5.13
2023-03-12T13:16:32.482Z,4.27
2023-03-12T13:19:43.202Z,4.07
2023-03-12T13:23:22.061Z,3.50
2023-03-12T13:26:30.364Z,4.80
2023-03-12T13:29:39.748Z,2.80
2023-03-12T13:33:11.217Z,3.63
2023-03-12T13:36:25.280Z,3.03
2023-03-12T13:39:33.189Z,3.23
2023-03-12T13:42:41.872Z,3.70
2023-03-12T13:46:00.718Z,4.07
2023-03-12T13:49:10.694Z,3.80
2023-03-12T13:52:23.855Z,3.50
2023-03-12T13:55:29.955Z,4.37
2023-03-12T13:58:39.847Z,3.33
2023-03-12T14:01:48.146Z,3.37
2023-03-12T14:04:51.285Z,2.87
2023-03-12T14:08:16.229Z,2.67
2023-03-12T14:11:37.633Z,3.33
2023-03-12T14:14:56.217Z,4.17
2023-03-12T14:18:02.516Z,3.73
2023-03-12T14:21:10.485Z,4.13
2023-03-12T14:24:23.635Z,3.10
2023-03-12T14:27:31.982Z,2.00
2023-03-12T14:30:44.038Z,2.40
2023-03-12T14:33:54.939Z,2.50
2023-03-12T14:37:01.574Z,3.87
2023-03-12T14:40:09.708Z,2.50
2023-03-12T14:43:23.550Z,2.60
2023-03-12T14:46:26.510Z,1.37
2023-03-12T14:49:31.192Z,1.40
2023-03-12T14:52:35.084Z,1.73
2023-03-12T14:55:38.048Z,2.93
2023-03-12T14:58:46.857Z,3.27
2023-03-12T15:01:50.070Z,3.03
2023-03-12T15:04:56.355Z,2.97
2023-03-12T15:08:03.597Z,3.70
2023-03-12T15:11:06.500Z,1.97
2023-03-12T15:14:15.463Z,2.27
2023-03-12T15:17:21.054Z,2.90
2023-03-12T15:20:26.699Z,5.33
2023-03-12T15:23:31.520Z,2.13
2023-03-12T15:26:38.060Z,2.87
2023-03-12T15:29:43.104Z,4.47
2023-03-12T15:33:08.956Z,4.73
2023-03-12T15:36:25.780Z,2.23
2023-03-12T15:39:31.322Z,1.63
2023-03-12T15:42:40.576Z,0.90
2023-03-12T15:45:44.907Z,1.60
2023-03-12T15:48:51.105Z,3.17
2023-03-12T15:52:03.769Z,1.37
2023-03-12T15:55:25.461Z,1.80
2023-03-12T15:58:31.672Z,3.40
2023-03-12T16:01:47.962Z,0.93
2023-03-12T16:04:50.824Z,1.70
2023-03-12T16:07:54.053Z,0.93
2023-03-12T16:10:57.340Z,1.17
2023-03-12T16:14:04.630Z,1.13
2023-03-12T16:17:14.408Z,1.10
2023-03-12T16:20:18.462Z,1.60
2023-03-12T16:23:21.519Z,0.63
2023-03-12T16:26:24.397Z,0.60
2023-03-12T16:29:32.427Z,1.10
2023-03-12T16:32:36.734Z,1.33
2023-03-12T16:35:39.623Z,1.90
2023-03-12T16:38:42.797Z,0.70
2023-03-12T16:41:45.900Z,2.20
2023-03-12T16:44:48.972Z,11.17
2023-03-12T16:47:56.756Z,1.60
2023-03-12T16:51:00.140Z,4.10
2023-03-12T16:54:10.349Z,3.77
2023-03-12T16:57:23.341Z,3.33
2023-03-12T17:00:28.989Z,2.00
2023-03-12T17:03:36.465Z,2.33
2023-03-12T17:06:41.530Z,1.27
2023-03-12T17:09:44.406Z,1.77
2023-03-12T17:12:48.485Z,5.17
2023-03-12T17:15:52.303Z,3.17
2023-03-12T17:18:57.054Z,4.70
2023-03-12T17:21:59.995Z,2.73
2023-03-12T17:25:02.887Z,4.83
2023-03-12T17:28:06.384Z,2.83
2023-03-12T17:31:09.649Z,2.43
2023-03-12T17:34:13.872Z,5.43
2023-03-12T17:37:16.733Z,3.30
2023-03-12T17:40:19.814Z,3.50
2023-03-12T17:43:22.700Z,3.30
2023-03-12T17:46:25.629Z,2.37
2023-03-12T17:49:30.449Z,2.47
2023-03-12T17:52:33.355Z,2.13
2023-03-12T17:55:36.488Z,4.50
2023-03-12T17:58:39.387Z,3.83
2023-03-12T18:01:42.284Z,4.10
2023-03-12T18:04:46.560Z,5.37
2023-03-12T18:07:50.460Z,6.20
2023-03-12T18:10:53.346Z,5.03
2023-03-12T18:13:56.216Z,2.63
2023-03-12T18:16:59.354Z,1.70
2023-03-12T18:20:08.295Z,1.10
2023-03-12T18:23:11.387Z,1.83
2023-03-12T18:26:14.274Z,2.03
2023-03-12T18:29:17.134Z,2.47
2023-03-12T18:32:20.032Z,1.60
2023-03-12T18:35:28.692Z,2.37
2023-03-12T18:38:32.421Z,2.37
2023-03-12T18:41:36.482Z,1.57
2023-03-12T18:44:39.444Z,1.37
2023-03-12T18:47:44.927Z,2.47
2023-03-12T18:50:50.669Z,1.93
2023-03-12T18:53:53.520Z,4.50
2023-03-12T18:56:56.377Z,2.17
2023-03-12T18:59:59.382Z,3.80
2023-03-12T19:03:02.317Z,1.97
2023-03-12T19:06:09.067Z,4.10
2023-03-12T19:09:12.235Z,2.60
2023-03-12T19:12:15.085Z,4.43
2023-03-12T19:15:18.114Z,1.10
2023-03-12T19:18:20.963Z,2.93
2023-03-12T19:21:25.230Z,1.70
2023-03-12T19:24:28.125Z,1.30
2023-03-12T19:27:31.001Z,5.20
2023-03-12T19:30:33.894Z,3.20
2023-03-12T19:33:37.293Z,6.90
2023-03-12T19:36:41.479Z,5.13
2023-03-12T19:39:44.558Z,3.47
2023-03-12T19:42:47.458Z,1.77
2023-03-12T19:45:50.400Z,2.30
2023-03-12T19:48:53.269Z,1.53
2023-03-12T19:51:57.605Z,3.33
2023-03-12T19:55:05.164Z,1.97
2023-03-12T19:58:09.144Z,2.50
2023-03-12T20:01:12.061Z,2.23
2023-03-12T20:04:15.069Z,2.73
2023-03-12T20:07:19.258Z,2.30
2023-03-12T20:10:22.488Z,3.23
2023-03-12T20:13:25.349Z,2.77
2023-03-12T20:16:28.319Z,5.37
2023-03-12T20:19:31.236Z,4.60
2023-03-12T20:22:36.380Z,2.17
2023-03-12T20:25:40.763Z,4.40
2023-03-12T20:28:43.759Z,3.03
2023-03-12T20:31:46.652Z,4.77
2023-03-12T20:34:49.533Z,5.07
2023-03-12T20:37:54.317Z,4.33
2023-03-12T20:40:57.203Z,7.10
2023-03-12T20:44:00.381Z,10.67
2023-03-12T20:47:03.284Z,14.43
2023-03-12T20:50:06.995Z,10.23
2023-03-12T20:53:11.211Z,6.67
2023-03-12T20:56:14.196Z,3.47
2023-03-12T20:59:17.337Z,2.20
2023-03-12T21:02:20.258Z,2.43
2023-03-12T21:05:24.971Z,3.40
2023-03-12T21:08:30.322Z,1.97
2023-03-12T21:11:33.301Z,2.13
2023-03-12T21:14:36.246Z,2.43
2023-03-12T21:17:40.794Z,2.20
2023-03-12T21:20:44.223Z,2.23
2023-03-12T21:23:48.485Z,3.07
2023-03-12T21:26:51.436Z,3.20
2023-03-12T21:29:54.660Z,2.77
2023-03-12T21:32:57.698Z,2.67
2023-03-12T21:36:00.740Z,2.40
2023-03-12T21:39:05.084Z,2.93
2023-03-12T21:42:07.998Z,2.87
2023-03-12T21:45:12.004Z,2.97
2023-03-12T21:48:14.840Z,4.77
2023-03-12T21:51:18.855Z,4.00
2023-03-12T21:54:23.135Z,2.30
2023-03-12T21:57:26.164Z,2.43
2023-03-12T22:00:29.135Z,4.20
2023-03-12T22:03:32.013Z,3.77
2023-03-12T22:06:34.904Z,2.50
2023-03-12T22:09:39.097Z,4.63
2023-03-12T22:12:42.169Z,3.03
2023-03-12T22:15:48.075Z,4.50
2023-03-12T22:18:50.998Z,3.83
2023-03-12T22:21:53.911Z,2.43
2023-03-12T22:24:58.091Z,3.13
2023-03-12T22:28:01.084Z,2.63
2023-03-12T22:31:05.857Z,3.33
2023-03-12T22:34:08.944Z,2.37
2023-03-12T22:37:11.875Z,3.97
2023-03-12T22:40:16.482Z,4.90
2023-03-12T22:43:19.390Z,2.77
2023-03-12T22:46:24.147Z,3.23
2023-03-12T22:49:27.228Z,1.70
2023-03-12T22:52:30.095Z,2.23
2023-03-12T22:55:34.433Z,3.53
2023-03-12T22:58:37.844Z,3.33
2023-03-12T23:01:40.825Z,3.00
2023-03-12T23:04:43.787Z,2.83
2023-03-12T23:07:46.792Z,5.10
2023-03-12T23:10:55.814Z,4.73
2023-03-12T23:13:58.782Z,1.77
2023-03-12T23:17:01.984Z,2.03
2023-03-12T23:20:07.663Z,2.37
2023-03-12T23:23:10.650Z,3.83
2023-03-12T23:26:17.440Z,5.60
2023-03-12T23:29:20.391Z,3.70
2023-03-12T23:32:23.496Z,2.27
2023-03-12T23:35:26.449Z,3.33
2023-03-12T23:38:30.678Z,1.80
2023-03-12T23:41:34.888Z,3.83
2023-03-12T23:44:38.871Z,4.40
2023-03-12T23:47:41.742Z,1.57
2023-03-12T23:50:44.576Z,1.47
2023-03-12T23:53:49.713Z,4.23
2023-03-12T23:56:56.137Z,1.90
2023-03-12T23:59:58.977Z,2.83
